< < Back
Terminal Aerodrome Forecast


Current Version              Previous Versions:   1  2  3  4  5  6  7  8  9  

Terminal Aerodrome Forecast

950
FTUS42 KTAE 240500
TAFABY
TAF
KABY 240520Z 2406/2506 00000KT P6SM OVC200
     FM241500 04005KT P6SM SCT200
     FM250000 00000KT P6SM SKC=

Latest METAR

761
SAUS70 KWBC 240800 RRD
MTRABY
METAR KABY 240753Z 00000KT 10SM CLR 11/09 A3005 RMK AO2 SLP174 T01060094
$


USA.gov is the U.S. government's official web portal to all federal, state and local government web resources and services.